Boise, ID (83722)

5:03 PM MDT on September 30, 2014 (GMT -0600)
Sunset | Change Station
CLOSE
Current Station
Personal Weather Station
Location: Boise, ID
Elevation: 2677 ft
Nearby Weather Stations

Elev 2677 ft 43.65 °N, 116.23 °W | Updated 12 minutes ago

Partly Cloudy
Partly Cloudy
61.7 °F
Feels Like 61.7 °F
N
3.7
Wind Variable Wind from SW

Today
High -- | Low -- °F
--% Chance of Precip.
Yesterday
High -- | Low -- °F
Precip. -- in
7:41 AM 7:27 PM
Waxing Crescent, 41% visible
Pressure 29.95 in
Visibility 10.0 miles
Clouds Scattered Clouds 6500 ft
Dew Point 41 °F
Humidity 47%
Rainfall 0.05 in
Snow Depth 1 in , 1 in , 113 in
UV 3 out of 12
Pollen 7.90 out of 12
Ozone Good
Flu Activity Not available.
METAR KBOI 302153Z 32016G21KT 10SM SCT065 15/02 A2997 RMK AO2 SLP141 T01500017

More Conditions Fewer Conditions

Pressure 29.95 in
Visibility 10.0 miles
Clouds Scattered Clouds 6500 ft
Dew Point 41 °F
Humidity 47%
Rainfall 0.05 in
Snow Depth 1 in , 1 in , 113 in
UV 3 out of 12
Pollen 7.90 out of 12
Ozone Good
Flu Activity Not available.
METAR KBOI 302153Z 32016G21KT 10SM SCT065 15/02 A2997 RMK AO2 SLP141 T01500017

More Conditions Fewer Conditions

10-Day Weather Forecast

Almanac

Astronomy

Sep. 30, 2014 Rise Set
Actual Time 7:41 AM MDT 7:27 PM MDT
Civil Twilight 7:12 AM MDT 7:56 PM MDT
Nautical Twilight 6:39 AM MDT 8:29 PM MDT
Astronomical Twilight 6:05 AM MDT 9:02 PM MDT
Moon 2:01 PM MDT 11:53 PM MDT
Length of Visible Light 12h 43m
Length of Day
11h 46m
Tomorrow will be 2m 57s shorter.
Waxing Crescent, 41% of the Moon is Illuminated
Today
Waxing Crescent
Oct 1
First Quarter
Oct 8
Full
Oct 15
Last Quarter
Oct 23
New

Today's Extremes

State Highs State Lows

Community

WunderPhotos

Upload Photos

1,757,768 photos uploaded!

Nearby

Air Quality

  Air Quality AQ Index Pollutant
Yesterday Good
OZONE
Yesterday Good
PM10
Current Good
OZONE
Tuesday Good
OZONE
Wednesday Good
OZONE
Wednesday Good
PM2.5
Thursday Good
OZONE

Snow Depth

Station Depth Elevation
White Elephant 1 in 7710 ft
Hemlock Butte 1 in 5810 ft
Crab Creek 113 in 6860 ft
Smiley Mountain 0 in 9520 ft
Franklin Basin 2 in 8170 ft

Earthquake Activity

City Distance Mag. Time & Date
No recent earthquake activity has been reported nearby.
Minimum magnitude displayed is 2.5.

Coastal Water Temperatures

Place Temperature
No Stations Reporting

Nearby Weather Stations